sensor_id;sensor_type;location;lat;lon;timestamp;pressure;altitude;pressure_sealevel;temperature;humidity
38716;BME280;24833;49.324;8.694;2022-12-11T00:00:25;99275.06;;;-2.31;92.25
38716;BME280;24833;49.324;8.694;2022-12-11T00:02:52;99280.56;;;-2.34;92.20
38716;BME280;24833;49.324;8.694;2022-12-11T00:05:19;99274.63;;;-2.36;92.20
38716;BME280;24833;49.324;8.694;2022-12-11T00:07:46;99274.06;;;-2.39;92.20
38716;BME280;24833;49.324;8.694;2022-12-11T00:10:13;99272.50;;;-2.42;92.28
38716;BME280;24833;49.324;8.694;2022-12-11T00:12:40;99266.72;;;-2.45;92.01
38716;BME280;24833;49.324;8.694;2022-12-11T00:15:07;99270.50;;;-2.50;91.96
38716;BME280;24833;49.324;8.694;2022-12-11T00:17:35;99270.78;;;-2.53;91.76
38716;BME280;24833;49.324;8.694;2022-12-11T00:20:03;99270.19;;;-2.56;91.96
38716;BME280;24833;49.324;8.694;2022-12-11T00:22:31;99271.28;;;-2.59;91.61
38716;BME280;24833;49.324;8.694;2022-12-11T00:24:58;99274.13;;;-2.62;91.84
38716;BME280;24833;49.324;8.694;2022-12-11T00:27:25;99277.00;;;-2.65;91.79
38716;BME280;24833;49.324;8.694;2022-12-11T00:29:52;99274.63;;;-2.68;92.05
38716;BME280;24833;49.324;8.694;2022-12-11T00:32:18;99276.66;;;-2.71;91.77
38716;BME280;24833;49.324;8.694;2022-12-11T00:34:45;99276.88;;;-2.75;91.68
38716;BME280;24833;49.324;8.694;2022-12-11T00:37:12;99276.31;;;-2.78;91.85
38716;BME280;24833;49.324;8.694;2022-12-11T00:39:40;99279.16;;;-2.81;91.78
38716;BME280;24833;49.324;8.694;2022-12-11T00:42:07;99272.41;;;-2.84;91.69
38716;BME280;24833;49.324;8.694;2022-12-11T00:44:34;99273.50;;;-2.86;91.76
38716;BME280;24833;49.324;8.694;2022-12-11T00:47:02;99278.13;;;-2.90;91.64
38716;BME280;24833;49.324;8.694;2022-12-11T00:49:30;99277.56;;;-2.93;91.57
38716;BME280;24833;49.324;8.694;2022-12-11T00:51:57;99273.38;;;-2.96;91.69
38716;BME280;24833;49.324;8.694;2022-12-11T00:54:24;99279.69;;;-2.98;91.70
38716;BME280;24833;49.324;8.694;2022-12-11T00:56:51;99276.38;;;-3.00;91.72
38716;BME280;24833;49.324;8.694;2022-12-11T00:59:18;99275.66;;;-3.03;91.68
38716;BME280;24833;49.324;8.694;2022-12-11T01:01:48;99276.63;;;-3.04;91.79
38716;BME280;24833;49.324;8.694;2022-12-11T01:04:15;99274.97;;;-3.05;91.89
38716;BME280;24833;49.324;8.694;2022-12-11T01:06:42;99274.13;;;-3.05;91.91
38716;BME280;24833;49.324;8.694;2022-12-11T01:09:09;99274.97;;;-3.05;92.03
38716;BME280;24833;49.324;8.694;2022-12-11T01:11:55;99270.56;;;-3.04;92.09
38716;BME280;24833;49.324;8.694;2022-12-11T01:14:21;99273.03;;;-3.03;92.10
38716;BME280;24833;49.324;8.694;2022-12-11T01:16:48;99278.28;;;-3.03;92.36
38716;BME280;24833;49.324;8.694;2022-12-11T01:19:18;99280.75;;;-3.01;92.22
38716;BME280;24833;49.324;8.694;2022-12-11T01:21:45;99276.38;;;-3.00;92.24
38716;BME280;24833;49.324;8.694;2022-12-11T01:24:12;99280.41;;;-2.96;92.31
38716;BME280;24833;49.324;8.694;2022-12-11T01:26:39;99288.00;;;-2.93;92.36
38716;BME280;24833;49.324;8.694;2022-12-11T01:29:06;99287.75;;;-2.90;92.62
38716;BME280;24833;49.324;8.694;2022-12-11T01:31:33;99279.69;;;-2.87;92.81
38716;BME280;24833;49.324;8.694;2022-12-11T01:34:00;99288.22;;;-2.85;92.44
38716;BME280;24833;49.324;8.694;2022-12-11T01:36:28;99285.25;;;-2.81;92.77
38716;BME280;24833;49.324;8.694;2022-12-11T01:38:55;99290.34;;;-2.79;92.99
38716;BME280;24833;49.324;8.694;2022-12-11T01:41:22;99280.59;;;-2.77;93.40
38716;BME280;24833;49.324;8.694;2022-12-11T01:44:02;99289.84;;;-2.73;93.44
38716;BME280;24833;49.324;8.694;2022-12-11T01:46:32;99274.03;;;-2.71;93.67
38716;BME280;24833;49.324;8.694;2022-12-11T01:49:03;99271.31;;;-2.70;93.63
38716;BME280;24833;49.324;8.694;2022-12-11T01:51:41;99268.47;;;-2.67;94.16
38716;BME280;24833;49.324;8.694;2022-12-11T01:54:12;99269.28;;;-2.66;93.94
38716;BME280;24833;49.324;8.694;2022-12-11T01:56:42;99278.66;;;-2.64;93.25
38716;BME280;24833;49.324;8.694;2022-12-11T01:59:10;99271.50;;;-2.62;93.06
38716;BME280;24833;49.324;8.694;2022-12-11T02:01:54;99262.75;;;-2.61;93.41
38716;BME280;24833;49.324;8.694;2022-12-11T02:04:23;99266.88;;;-2.58;93.50
38716;BME280;24833;49.324;8.694;2022-12-11T02:06:51;99268.53;;;-2.57;93.43
38716;BME280;24833;49.324;8.694;2022-12-11T02:09:24;99267.56;;;-2.56;93.21
38716;BME280;24833;49.324;8.694;2022-12-11T02:12:14;99271.75;;;-2.54;93.03
38716;BME280;24833;49.324;8.694;2022-12-11T02:20:53;99291.41;;;-2.50;92.63
38716;BME280;24833;49.324;8.694;2022-12-11T02:26:46;99287.84;;;-2.49;92.67
38716;BME280;24833;49.324;8.694;2022-12-11T02:29:49;99280.13;;;-2.50;92.46
38716;BME280;24833;49.324;8.694;2022-12-11T02:32:29;99291.41;;;-2.50;92.59
38716;BME280;24833;49.324;8.694;2022-12-11T02:37:58;99280.97;;;-2.50;92.57
38716;BME280;24833;49.324;8.694;2022-12-11T02:40:30;99287.84;;;-2.49;92.60
38716;BME280;24833;49.324;8.694;2022-12-11T02:43:02;99299.13;;;-2.48;92.50
38716;BME280;24833;49.324;8.694;2022-12-11T02:45:31;99303.53;;;-2.49;92.51
38716;BME280;24833;49.324;8.694;2022-12-11T02:48:02;99310.41;;;-2.48;92.51
38716;BME280;24833;49.324;8.694;2022-12-11T02:50:33;99301.75;;;-2.48;92.64
38716;BME280;24833;49.324;8.694;2022-12-11T02:53:02;99299.94;;;-2.48;92.45
38716;BME280;24833;49.324;8.694;2022-12-11T02:55:32;99295.69;;;-2.49;92.56
38716;BME280;24833;49.324;8.694;2022-12-11T02:58:15;99296.66;;;-2.50;92.39
38716;BME280;24833;49.324;8.694;2022-12-11T03:00:44;99295.81;;;-2.50;92.47
38716;BME280;24833;49.324;8.694;2022-12-11T03:03:14;99297.47;;;-2.49;92.49
38716;BME280;24833;49.324;8.694;2022-12-11T03:05:41;99295.81;;;-2.50;92.43
38716;BME280;24833;49.324;8.694;2022-12-11T03:08:09;99301.03;;;-2.50;92.43
38716;BME280;24833;49.324;8.694;2022-12-11T03:10:36;99299.25;;;-2.50;92.53
38716;BME280;24833;49.324;8.694;2022-12-11T03:13:03;99287.03;;;-2.49;92.49
38716;BME280;24833;49.324;8.694;2022-12-11T03:18:50;99298.31;;;-2.49;92.38
38716;BME280;24833;49.324;8.694;2022-12-11T03:22:07;99303.44;;;-2.47;93.04
38716;BME280;24833;49.324;8.694;2022-12-11T03:24:57;99299.94;;;-2.48;93.12
38716;BME280;24833;49.324;8.694;2022-12-11T03:27:34;99295.59;;;-2.47;93.50
38716;BME280;24833;49.324;8.694;2022-12-11T03:30:15;99295.47;;;-2.45;93.04
38716;BME280;24833;49.324;8.694;2022-12-11T03:35:33;99296.16;;;-2.43;92.89
38716;BME280;24833;49.324;8.694;2022-12-11T03:38:10;99296.84;;;-2.41;92.98
38716;BME280;24833;49.324;8.694;2022-12-11T03:40:39;99294.22;;;-2.41;93.03
38716;BME280;24833;49.324;8.694;2022-12-11T03:43:09;99290.69;;;-2.40;93.23
38716;BME280;24833;49.324;8.694;2022-12-11T03:45:38;99299.22;;;-2.38;93.01
38716;BME280;24833;49.324;8.694;2022-12-11T03:48:08;99299.91;;;-2.36;93.43
38716;BME280;24833;49.324;8.694;2022-12-11T03:50:37;99302.53;;;-2.36;93.41
38716;BME280;24833;49.324;8.694;2022-12-11T03:53:05;99307.53;;;-2.33;93.44
38716;BME280;24833;49.324;8.694;2022-12-11T03:55:32;99311.81;;;-2.32;93.40
38716;BME280;24833;49.324;8.694;2022-12-11T03:58:02;99309.06;;;-2.31;93.07
38716;BME280;24833;49.324;8.694;2022-12-11T04:00:30;99314.16;;;-2.29;93.45
38716;BME280;24833;49.324;8.694;2022-12-11T04:02:58;99310.56;;;-2.28;93.39
38716;BME280;24833;49.324;8.694;2022-12-11T04:05:44;99307.84;;;-2.27;93.17
38716;BME280;24833;49.324;8.694;2022-12-11T04:08:12;99307.72;;;-2.25;93.52
38716;BME280;24833;49.324;8.694;2022-12-11T04:10:40;99296.31;;;-2.24;93.22
38716;BME280;24833;49.324;8.694;2022-12-11T04:13:09;99300.56;;;-2.23;93.21
38716;BME280;24833;49.324;8.694;2022-12-11T04:15:37;99304.84;;;-2.22;93.47
38716;BME280;24833;49.324;8.694;2022-12-11T04:18:07;99294.28;;;-2.21;93.93
38716;BME280;24833;49.324;8.694;2022-12-11T04:20:53;99295.22;;;-2.22;94.44
38716;BME280;24833;49.324;8.694;2022-12-11T04:23:39;99296.03;;;-2.21;94.01
38716;BME280;24833;49.324;8.694;2022-12-11T04:26:26;99296.75;;;-2.19;94.01
38716;BME280;24833;49.324;8.694;2022-12-11T04:28:53;99299.38;;;-2.19;94.15
38716;BME280;24833;49.324;8.694;2022-12-11T04:31:21;99300.91;;;-2.16;93.72
38716;BME280;24833;49.324;8.694;2022-12-11T04:33:48;99300.78;;;-2.15;93.54
38716;BME280;24833;49.324;8.694;2022-12-11T04:36:15;99308.50;;;-2.13;93.58
38716;BME280;24833;49.324;8.694;2022-12-11T04:38:43;99309.91;;;-2.09;93.66
38716;BME280;24833;49.324;8.694;2022-12-11T04:41:12;99306.22;;;-2.07;93.49
38716;BME280;24833;49.324;8.694;2022-12-11T04:43:40;99297.16;;;-2.03;94.06
38716;BME280;24833;49.324;8.694;2022-12-11T04:46:19;99299.63;;;-2.01;93.89
38716;BME280;24833;49.324;8.694;2022-12-11T04:48:47;99302.13;;;-2.00;93.74
38716;BME280;24833;49.324;8.694;2022-12-11T04:51:23;99294.03;;;-1.97;93.60
38716;BME280;24833;49.324;8.694;2022-12-11T04:53:50;99294.72;;;-1.95;93.56
38716;BME280;24833;49.324;8.694;2022-12-11T04:56:17;99285.81;;;-1.92;93.70
38716;BME280;24833;49.324;8.694;2022-12-11T04:58:44;99293.50;;;-1.90;93.57
38716;BME280;24833;49.324;8.694;2022-12-11T05:01:18;99285.41;;;-1.87;93.64
38716;BME280;24833;49.324;8.694;2022-12-11T05:03:48;99289.69;;;-1.86;93.58
38716;BME280;24833;49.324;8.694;2022-12-11T05:06:16;99287.78;;;-1.84;93.64
38716;BME280;24833;49.324;8.694;2022-12-11T05:08:43;99285.03;;;-1.83;93.65
38716;BME280;24833;49.324;8.694;2022-12-11T05:11:13;99291.06;;;-1.82;93.56
38716;BME280;24833;49.324;8.694;2022-12-11T05:13:41;99293.56;;;-1.81;93.58
38716;BME280;24833;49.324;8.694;2022-12-11T05:16:12;99294.41;;;-1.80;93.41
38716;BME280;24833;49.324;8.694;2022-12-11T05:18:39;99294.41;;;-1.80;93.23
38716;BME280;24833;49.324;8.694;2022-12-11T05:21:10;99290.84;;;-1.79;93.64
38716;BME280;24833;49.324;8.694;2022-12-11T05:23:38;99293.44;;;-1.79;94.01
38716;BME280;24833;49.324;8.694;2022-12-11T05:26:11;99285.59;;;-1.79;94.24
38716;BME280;24833;49.324;8.694;2022-12-11T05:28:39;99282.03;;;-1.78;93.88
38716;BME280;24833;49.324;8.694;2022-12-11T05:31:18;99276.78;;;-1.78;93.96
38716;BME280;24833;49.324;8.694;2022-12-11T05:33:47;99275.97;;;-1.79;94.46
38716;BME280;24833;49.324;8.694;2022-12-11T05:36:20;99271.69;;;-1.80;94.34
38716;BME280;24833;49.324;8.694;2022-12-11T05:38:48;99276.09;;;-1.80;94.29
38716;BME280;24833;49.324;8.694;2022-12-11T05:41:18;99270.97;;;-1.82;94.22
38716;BME280;24833;49.324;8.694;2022-12-11T05:43:46;99265.75;;;-1.82;94.19
38716;BME280;24833;49.324;8.694;2022-12-11T05:46:17;99263.25;;;-1.83;93.94
38716;BME280;24833;49.324;8.694;2022-12-11T05:48:48;99264.22;;;-1.84;94.07
38716;BME280;24833;49.324;8.694;2022-12-11T05:51:17;99264.22;;;-1.84;93.78
38716;BME280;24833;49.324;8.694;2022-12-11T05:53:48;99254.72;;;-1.85;93.67
38716;BME280;24833;49.324;8.694;2022-12-11T05:56:19;99252.09;;;-1.85;93.71
38716;BME280;24833;49.324;8.694;2022-12-11T05:58:47;99257.47;;;-1.87;93.68
38716;BME280;24833;49.324;8.694;2022-12-11T06:01:20;99261.84;;;-1.87;93.69
38716;BME280;24833;49.324;8.694;2022-12-11T06:03:47;99265.44;;;-1.88;93.63
38716;BME280;24833;49.324;8.694;2022-12-11T06:06:14;99267.34;;;-1.90;93.73
38716;BME280;24833;49.324;8.694;2022-12-11T06:08:42;99266.53;;;-1.91;93.86
38716;BME280;24833;49.324;8.694;2022-12-11T06:11:12;99275.34;;;-1.92;93.39
38716;BME280;24833;49.324;8.694;2022-12-11T06:13:39;99269.28;;;-1.93;93.62
38716;BME280;24833;49.324;8.694;2022-12-11T06:16:08;99264.88;;;-1.92;93.71
38716;BME280;24833;49.324;8.694;2022-12-11T06:18:42;99269.28;;;-1.93;93.58
38716;BME280;24833;49.324;8.694;2022-12-11T06:21:30;99265.84;;;-1.93;93.65
38716;BME280;24833;49.324;8.694;2022-12-11T06:24:00;99259.66;;;-1.92;93.70
38716;BME280;24833;49.324;8.694;2022-12-11T06:26:28;99258.00;;;-1.93;93.86
38716;BME280;24833;49.324;8.694;2022-12-11T06:28:56;99258.00;;;-1.93;93.77
38716;BME280;24833;49.324;8.694;2022-12-11T06:31:23;99251.94;;;-1.94;93.71
38716;BME280;24833;49.324;8.694;2022-12-11T06:33:50;99249.19;;;-1.92;93.76
38716;BME280;24833;49.324;8.694;2022-12-11T06:36:20;99252.63;;;-1.92;93.71
38716;BME280;24833;49.324;8.694;2022-12-11T06:38:49;99249.19;;;-1.92;93.78
38716;BME280;24833;49.324;8.694;2022-12-11T06:41:16;99249.19;;;-1.92;93.91
38716;BME280;24833;49.324;8.694;2022-12-11T06:43:43;99251.78;;;-1.92;93.76
38716;BME280;24833;49.324;8.694;2022-12-11T06:46:13;99250.00;;;-1.92;93.83
38716;BME280;24833;49.324;8.694;2022-12-11T06:48:42;99239.69;;;-1.93;94.15
38716;BME280;24833;49.324;8.694;2022-12-11T06:51:13;99247.63;;;-1.95;93.94
38716;BME280;24833;49.324;8.694;2022-12-11T06:53:41;99239.78;;;-1.95;93.98
38716;BME280;24833;49.324;8.694;2022-12-11T06:56:11;99251.94;;;-1.94;93.89
38716;BME280;24833;49.324;8.694;2022-12-11T06:58:40;99252.88;;;-1.95;93.82
38716;BME280;24833;49.324;8.694;2022-12-11T07:01:19;99245.00;;;-1.95;93.52
38716;BME280;24833;49.324;8.694;2022-12-11T07:03:51;99249.41;;;-1.95;93.89
38716;BME280;24833;49.324;8.694;2022-12-11T07:06:18;99239.78;;;-1.95;93.70
38716;BME280;24833;49.324;8.694;2022-12-11T07:08:45;99238.13;;;-1.96;93.91
38716;BME280;24833;49.324;8.694;2022-12-11T07:11:14;99246.94;;;-1.97;93.77
38716;BME280;24833;49.324;8.694;2022-12-11T07:13:45;99244.31;;;-1.97;93.77
38716;BME280;24833;49.324;8.694;2022-12-11T07:16:14;99252.16;;;-1.97;94.32
38716;BME280;24833;49.324;8.694;2022-12-11T07:18:47;99253.28;;;-1.99;94.42
38716;BME280;24833;49.324;8.694;2022-12-11T07:21:15;99248.88;;;-1.99;94.16
38716;BME280;24833;49.324;8.694;2022-12-11T07:23:42;99253.38;;;-2.01;94.07
38716;BME280;24833;49.324;8.694;2022-12-11T07:26:16;99254.22;;;-2.00;93.78
38716;BME280;24833;49.324;8.694;2022-12-11T07:28:44;99254.34;;;-2.02;93.89
38716;BME280;24833;49.324;8.694;2022-12-11T07:31:15;99262.31;;;-2.03;93.80
38716;BME280;24833;49.324;8.694;2022-12-11T07:33:43;99265.91;;;-2.04;93.77
38716;BME280;24833;49.324;8.694;2022-12-11T07:36:12;99270.31;;;-2.05;93.75
38716;BME280;24833;49.324;8.694;2022-12-11T07:38:39;99267.56;;;-2.03;93.73
38716;BME280;24833;49.324;8.694;2022-12-11T07:41:14;99270.31;;;-2.05;93.82
38716;BME280;24833;49.324;8.694;2022-12-11T07:43:42;99268.38;;;-2.03;93.88
38716;BME280;24833;49.324;8.694;2022-12-11T07:46:19;99271.13;;;-2.04;94.12
38716;BME280;24833;49.324;8.694;2022-12-11T07:48:47;99267.56;;;-2.03;94.07
38716;BME280;24833;49.324;8.694;2022-12-11T07:51:24;99267.56;;;-2.03;93.99
38716;BME280;24833;49.324;8.694;2022-12-11T07:54:07;99271.00;;;-2.03;93.91
38716;BME280;24833;49.324;8.694;2022-12-11T07:56:34;99272.66;;;-2.02;93.98
38716;BME280;24833;49.324;8.694;2022-12-11T07:59:03;99268.38;;;-2.03;93.87
38716;BME280;24833;49.324;8.694;2022-12-11T08:01:33;99267.31;;;-2.00;94.00
38716;BME280;24833;49.324;8.694;2022-12-11T08:04:06;99273.38;;;-2.00;93.84
38716;BME280;24833;49.324;8.694;2022-12-11T08:06:37;99270.63;;;-1.98;94.06
38716;BME280;24833;49.324;8.694;2022-12-11T08:09:06;99268.81;;;-1.98;93.69
38716;BME280;24833;49.324;8.694;2022-12-11T08:11:34;99273.91;;;-1.96;94.20
38716;BME280;24833;49.324;8.694;2022-12-11T08:14:01;99269.53;;;-1.96;94.40
38716;BME280;24833;49.324;8.694;2022-12-11T08:16:29;99270.34;;;-1.95;94.31
38716;BME280;24833;49.324;8.694;2022-12-11T08:18:57;99273.69;;;-1.93;94.30
38716;BME280;24833;49.324;8.694;2022-12-11T08:21:26;99277.00;;;-1.91;94.19
38716;BME280;24833;49.324;8.694;2022-12-11T08:23:54;99275.19;;;-1.90;94.35
38716;BME280;24833;49.324;8.694;2022-12-11T08:26:28;99280.28;;;-1.89;94.49
38716;BME280;24833;49.324;8.694;2022-12-11T08:28:56;99280.28;;;-1.89;94.44
38716;BME280;24833;49.324;8.694;2022-12-11T08:31:24;99286.34;;;-1.88;94.48
38716;BME280;24833;49.324;8.694;2022-12-11T08:33:51;99280.16;;;-1.87;94.66
38716;BME280;24833;49.324;8.694;2022-12-11T08:36:20;99274.94;;;-1.87;94.67
38716;BME280;24833;49.324;8.694;2022-12-11T08:38:49;99276.63;;;-1.86;94.54
38716;BME280;24833;49.324;8.694;2022-12-11T08:41:20;99282.53;;;-1.84;94.42
38716;BME280;24833;49.324;8.694;2022-12-11T08:43:48;99278.97;;;-1.83;94.54
38716;BME280;24833;49.324;8.694;2022-12-11T08:46:15;99278.97;;;-1.83;94.77
38716;BME280;24833;49.324;8.694;2022-12-11T08:48:45;99271.81;;;-1.81;94.56
38716;BME280;24833;49.324;8.694;2022-12-11T08:51:15;99274.19;;;-1.78;94.60
38716;BME280;24833;49.324;8.694;2022-12-11T08:53:43;99271.56;;;-1.78;94.74
38716;BME280;24833;49.324;8.694;2022-12-11T08:56:18;99280.09;;;-1.76;95.01
38716;BME280;24833;49.324;8.694;2022-12-11T08:58:45;99274.72;;;-1.75;95.04
38716;BME280;24833;49.324;8.694;2022-12-11T09:01:19;99270.31;;;-1.74;95.15
38716;BME280;24833;49.324;8.694;2022-12-11T09:03:51;99271.03;;;-1.72;94.86
38716;BME280;24833;49.324;8.694;2022-12-11T09:06:21;99264.56;;;-1.68;94.79
38716;BME280;24833;49.324;8.694;2022-12-11T09:08:50;99267.19;;;-1.68;95.01
38716;BME280;24833;49.324;8.694;2022-12-11T09:11:26;99267.78;;;-1.65;95.00
38716;BME280;24833;49.324;8.694;2022-12-11T09:13:54;99265.69;;;-1.61;95.07
38716;BME280;24833;49.324;8.694;2022-12-11T09:16:25;99262.84;;;-1.58;94.79
38716;BME280;24833;49.324;8.694;2022-12-11T09:18:55;99269.44;;;-1.54;94.96
38716;BME280;24833;49.324;8.694;2022-12-11T09:21:25;99270.88;;;-1.50;94.63
38716;BME280;24833;49.324;8.694;2022-12-11T09:23:56;99269.75;;;-1.47;94.95
38716;BME280;24833;49.324;8.694;2022-12-11T09:26:24;99263.44;;;-1.45;94.91
38716;BME280;24833;49.324;8.694;2022-12-11T09:28:52;99264.97;;;-1.42;95.00
38716;BME280;24833;49.324;8.694;2022-12-11T09:31:24;99262.94;;;-1.39;94.97
38716;BME280;24833;49.324;8.694;2022-12-11T09:33:54;99268.84;;;-1.37;95.11
38716;BME280;24833;49.324;8.694;2022-12-11T09:36:23;99264.31;;;-1.34;95.03
38716;BME280;24833;49.324;8.694;2022-12-11T09:38:51;99272.03;;;-1.33;95.12
38716;BME280;24833;49.324;8.694;2022-12-11T09:46:30;99273.16;;;-1.26;95.20
38716;BME280;24833;49.324;8.694;2022-12-11T09:49:02;99262.41;;;-1.23;95.29
38716;BME280;24833;49.324;8.694;2022-12-11T09:51:39;99259.66;;;-1.21;95.33
38716;BME280;24833;49.324;8.694;2022-12-11T09:54:11;99263.81;;;-1.19;95.16
38716;BME280;24833;49.324;8.694;2022-12-11T09:57:08;99256.50;;;-1.15;95.19
38716;BME280;24833;49.324;8.694;2022-12-11T10:00:04;99258.03;;;-1.13;95.36
38716;BME280;24833;49.324;8.694;2022-12-11T10:03:09;99248.41;;;-1.12;95.43
38716;BME280;24833;49.324;8.694;2022-12-11T10:06:23;99248.13;;;-1.09;95.51
38716;BME280;24833;49.324;8.694;2022-12-11T10:12:01;99246.91;;;-1.05;95.49
38716;BME280;24833;49.324;8.694;2022-12-11T10:17:33;99246.34;;;-0.99;96.08
38716;BME280;24833;49.324;8.694;2022-12-11T10:20:28;99240.69;;;-0.94;95.61
38716;BME280;24833;49.324;8.694;2022-12-11T10:23:02;99242.91;;;-0.90;95.78
38716;BME280;24833;49.324;8.694;2022-12-11T10:25:36;99240.72;;;-0.85;95.80
38716;BME280;24833;49.324;8.694;2022-12-11T10:28:19;99236.59;;;-0.77;95.99
38716;BME280;24833;49.324;8.694;2022-12-11T10:31:13;99229.16;;;-0.72;96.20
38716;BME280;24833;49.324;8.694;2022-12-11T10:33:58;99222.25;;;-0.64;96.12
38716;BME280;24833;49.324;8.694;2022-12-11T10:36:33;99215.47;;;-0.57;96.49
38716;BME280;24833;49.324;8.694;2022-12-11T10:39:01;99213.28;;;-0.51;96.24
38716;BME280;24833;49.324;8.694;2022-12-11T10:41:44;99212.59;;;-0.44;96.45
38716;BME280;24833;49.324;8.694;2022-12-11T10:44:20;99202.50;;;-0.39;96.41
38716;BME280;24833;49.324;8.694;2022-12-11T10:47:05;99202.91;;;-0.34;96.45
38716;BME280;24833;49.324;8.694;2022-12-11T10:49:35;99205.09;;;-0.29;96.31
38716;BME280;24833;49.324;8.694;2022-12-11T10:52:34;99201.25;;;-0.25;96.44
38716;BME280;24833;49.324;8.694;2022-12-11T10:55:06;99199.28;;;-0.23;96.33
38716;BME280;24833;49.324;8.694;2022-12-11T10:57:35;99196.25;;;-0.18;96.19
38716;BME280;24833;49.324;8.694;2022-12-11T11:00:05;99195.13;;;-0.16;96.22
38716;BME280;24833;49.324;8.694;2022-12-11T11:02:40;99197.34;;;-0.11;96.23
38716;BME280;24833;49.324;8.694;2022-12-11T11:05:29;99191.81;;;-0.08;96.45
38716;BME280;24833;49.324;8.694;2022-12-11T11:10:55;99185.16;;;-0.03;96.22
38716;BME280;24833;49.324;8.694;2022-12-11T11:13:25;99172.72;;;-0.01;96.54
38716;BME280;24833;49.324;8.694;2022-12-11T11:16:07;99179.19;;;0.05;96.49
38716;BME280;24833;49.324;8.694;2022-12-11T11:18:39;99180.84;;;0.06;96.44
38716;BME280;24833;49.324;8.694;2022-12-11T11:21:17;99177.94;;;0.09;96.39
38716;BME280;24833;49.324;8.694;2022-12-11T11:23:44;99180.44;;;0.11;96.32
38716;BME280;24833;49.324;8.694;2022-12-11T11:26:20;99178.47;;;0.13;96.34
38716;BME280;24833;49.324;8.694;2022-12-11T11:28:56;99177.38;;;0.15;96.39
38716;BME280;24833;49.324;8.694;2022-12-11T11:31:34;99177.38;;;0.15;96.25
38716;BME280;24833;49.324;8.694;2022-12-11T11:34:06;99180.69;;;0.17;96.47
38716;BME280;24833;49.324;8.694;2022-12-11T11:36:36;99169.19;;;0.18;96.42
38716;BME280;24833;49.324;8.694;2022-12-11T11:45:02;99158.44;;;0.21;96.53
38716;BME280;24833;49.324;8.694;2022-12-11T11:47:43;99161.06;;;0.21;96.46
38716;BME280;24833;49.324;8.694;2022-12-11T11:50:19;99158.44;;;0.21;96.26
38716;BME280;24833;49.324;8.694;2022-12-11T11:53:11;99166.31;;;0.21;96.30
38716;BME280;24833;49.324;8.694;2022-12-11T12:01:22;99152.47;;;0.19;96.14
38716;BME280;24833;49.324;8.694;2022-12-11T12:03:49;99154.97;;;0.21;96.36
38716;BME280;24833;49.324;8.694;2022-12-11T12:06:32;99162.84;;;0.21;96.36
38716;BME280;24833;49.324;8.694;2022-12-11T12:18:41;99154.75;;;0.14;96.33
38716;BME280;24833;49.324;8.694;2022-12-11T12:21:23;99154.75;;;0.14;96.31
38716;BME280;24833;49.324;8.694;2022-12-11T12:24:11;99161.63;;;0.15;96.54
38716;BME280;24833;49.324;8.694;2022-12-11T12:26:48;99158.69;;;0.18;96.66
38716;BME280;24833;49.324;8.694;2022-12-11T12:46:42;99143.06;;;0.26;96.54
38716;BME280;24833;49.324;8.694;2022-12-11T12:49:18;99140.16;;;0.30;96.74
38716;BME280;24833;49.324;8.694;2022-12-11T12:51:50;99131.03;;;0.34;96.74
38716;BME280;24833;49.324;8.694;2022-12-11T12:54:18;99129.06;;;0.36;96.83
38716;BME280;24833;49.324;8.694;2022-12-11T12:56:47;99132.38;;;0.38;96.86
38716;BME280;24833;49.324;8.694;2022-12-11T12:59:24;99129.47;;;0.41;96.81
38716;BME280;24833;49.324;8.694;2022-12-11T13:02:03;99128.34;;;0.43;96.93
38716;BME280;24833;49.324;8.694;2022-12-11T13:04:42;99126.53;;;0.44;96.84
38716;BME280;24833;49.324;8.694;2022-12-11T13:07:29;99121.94;;;0.46;96.64
38716;BME280;24833;49.324;8.694;2022-12-11T13:10:41;99123.63;;;0.47;97.05
38716;BME280;24833;49.324;8.694;2022-12-11T13:18:46;99116.03;;;0.44;96.55
38716;BME280;24833;49.324;8.694;2022-12-11T13:21:29;99110.78;;;0.44;96.56
38716;BME280;24833;49.324;8.694;2022-12-11T13:26:48;99109.13;;;0.43;96.66
38716;BME280;24833;49.324;8.694;2022-12-11T13:29:33;99123.91;;;0.44;96.45
38716;BME280;24833;49.324;8.694;2022-12-11T13:34:40;99132.75;;;0.43;96.36
38716;BME280;24833;49.324;8.694;2022-12-11T13:37:35;99132.59;;;0.44;96.55
38716;BME280;24833;49.324;8.694;2022-12-11T13:40:19;99134.41;;;0.44;96.62
38716;BME280;24833;49.324;8.694;2022-12-11T13:43:02;99130.28;;;0.41;96.67
38716;BME280;24833;49.324;8.694;2022-12-11T13:48:21;99141.78;;;0.40;96.41
38716;BME280;24833;49.324;8.694;2022-12-11T13:50:51;99141.88;;;0.39;96.23
38716;BME280;24833;49.324;8.694;2022-12-11T13:53:20;99147.28;;;0.37;96.34
38716;BME280;24833;49.324;8.694;2022-12-11T13:58:23;99143.03;;;0.36;96.34
38716;BME280;24833;49.324;8.694;2022-12-11T14:01:05;99141.22;;;0.37;96.48
38716;BME280;24833;49.324;8.694;2022-12-11T14:03:34;99147.44;;;0.36;96.34
38716;BME280;24833;49.324;8.694;2022-12-11T14:06:02;99143.03;;;0.36;96.46
38716;BME280;24833;49.324;8.694;2022-12-11T14:08:35;99144.66;;;0.37;96.74
38716;BME280;24833;49.324;8.694;2022-12-11T14:11:03;99149.91;;;0.37;96.61
38716;BME280;24833;49.324;8.694;2022-12-11T14:13:35;99153.38;;;0.38;96.58
38716;BME280;24833;49.324;8.694;2022-12-11T14:16:03;99148.28;;;0.36;96.44
38716;BME280;24833;49.324;8.694;2022-12-11T14:18:34;99153.38;;;0.38;96.39
38716;BME280;24833;49.324;8.694;2022-12-11T14:21:05;99156.16;;;0.36;96.40
38716;BME280;24833;49.324;8.694;2022-12-11T14:23:35;99164.84;;;0.37;96.37
38716;BME280;24833;49.324;8.694;2022-12-11T14:26:17;99165.00;;;0.35;96.39
38716;BME280;24833;49.324;8.694;2022-12-11T14:28:45;99166.81;;;0.35;96.24
38716;BME280;24833;49.324;8.694;2022-12-11T14:31:17;99167.78;;;0.34;96.24
38716;BME280;24833;49.324;8.694;2022-12-11T14:33:52;99165.28;;;0.32;96.23
38716;BME280;24833;49.324;8.694;2022-12-11T14:36:20;99164.44;;;0.32;95.99
38716;BME280;24833;49.324;8.694;2022-12-11T14:38:56;99162.81;;;0.31;95.90
38716;BME280;24833;49.324;8.694;2022-12-11T14:41:44;99162.94;;;0.29;95.95
38716;BME280;24833;49.324;8.694;2022-12-11T14:44:15;99166.56;;;0.28;96.19
38716;BME280;24833;49.324;8.694;2022-12-11T14:46:51;99174.56;;;0.26;96.10
38716;BME280;24833;49.324;8.694;2022-12-11T14:52:44;99170.44;;;0.24;96.04
38716;BME280;24833;49.324;8.694;2022-12-11T14:55:26;99182.88;;;0.22;95.91
38716;BME280;24833;49.324;8.694;2022-12-11T14:57:56;99175.97;;;0.21;96.13
38716;BME280;24833;49.324;8.694;2022-12-11T15:00:31;99179.84;;;0.17;95.90